KSNL/SNL METAR and TAF weather

Enter ICAO airport designator
Station Type Date Time Source
KSNL METAR 2020/04/02 02:35 UTC NOAA

KSNL 020235Z AUTO 18016G21KT 10SM CLR 16/08 A2986 RMK AO2 T01630083


Station Type Date Time Source
KSNL Decoded METAR 2020/04/02 02:35 UTC NOAA

Shawnee, Shawnee Municipal Airport, OK, United States (KSNL) 35-21-26N 096-56-34W
Apr 01, 2020 - 10:35 PM EDT / 2020.04.02 0235 UTC
Wind: from the S (180 degrees) at 18 MPH (16 KT) gusting to 24 MPH (21 KT):0
Visibility: 10 mile(s):0
Sky conditions: clear
Temperature: 61.3 F (16.3 C)
Dew Point: 46.9 F (8.3 C)
Relative Humidity: 59%
Pressure (altimeter): 29.86 in. Hg (1011 hPa)
ob: KSNL 020235Z AUTO 18016G21KT 10SM CLR 16/08 A2986 RMK AO2 T01630083
cycle: 2

Station Type Date Time Source
KSNL TAF UTC NOAA

Error!

Example: see airport list